sensor_id;sensor_type;location;lat;lon;timestamp;P1;durP1;ratioP1;P2;durP2;ratioP2
57635;SDS011;43465;50.728;4.160;2023-06-22T00:00:54;15.25;;;8.00;;
57635;SDS011;43465;50.728;4.160;2023-06-22T00:03:20;10.40;;;7.32;;
57635;SDS011;43465;50.728;4.160;2023-06-22T00:05:47;13.10;;;8.18;;
57635;SDS011;43465;50.728;4.160;2023-06-22T00:08:13;10.43;;;8.43;;
57635;SDS011;43465;50.728;4.160;2023-06-22T00:10:39;11.30;;;7.65;;
57635;SDS011;43465;50.728;4.160;2023-06-22T00:13:05;11.77;;;7.32;;
57635;SDS011;43465;50.728;4.160;2023-06-22T00:15:32;10.23;;;6.97;;
57635;SDS011;43465;50.728;4.160;2023-06-22T00:17:58;8.35;;;6.80;;
57635;SDS011;43465;50.728;4.160;2023-06-22T00:20:24;9.30;;;7.25;;
57635;SDS011;43465;50.728;4.160;2023-06-22T00:22:54;10.85;;;6.65;;
57635;SDS011;43465;50.728;4.160;2023-06-22T00:25:20;9.93;;;7.07;;
57635;SDS011;43465;50.728;4.160;2023-06-22T00:27:47;8.45;;;6.72;;
57635;SDS011;43465;50.728;4.160;2023-06-22T00:30:13;9.05;;;7.10;;
57635;SDS011;43465;50.728;4.160;2023-06-22T00:32:38;10.35;;;7.25;;
57635;SDS011;43465;50.728;4.160;2023-06-22T00:35:04;10.02;;;7.28;;
57635;SDS011;43465;50.728;4.160;2023-06-22T00:37:30;9.60;;;7.20;;
57635;SDS011;43465;50.728;4.160;2023-06-22T00:39:56;10.32;;;6.70;;
57635;SDS011;43465;50.728;4.160;2023-06-22T00:42:22;10.00;;;6.78;;
57635;SDS011;43465;50.728;4.160;2023-06-22T00:44:48;7.68;;;6.65;;
57635;SDS011;43465;50.728;4.160;2023-06-22T00:47:14;8.30;;;6.90;;
57635;SDS011;43465;50.728;4.160;2023-06-22T00:49:41;8.55;;;6.45;;
57635;SDS011;43465;50.728;4.160;2023-06-22T00:52:07;9.57;;;7.55;;
57635;SDS011;43465;50.728;4.160;2023-06-22T00:54:38;7.85;;;7.05;;
57635;SDS011;43465;50.728;4.160;2023-06-22T00:57:10;10.30;;;7.47;;
57635;SDS011;43465;50.728;4.160;2023-06-22T00:59:37;9.75;;;7.10;;
57635;SDS011;43465;50.728;4.160;2023-06-22T01:02:04;8.13;;;6.30;;
57635;SDS011;43465;50.728;4.160;2023-06-22T01:04:37;8.77;;;6.57;;
57635;SDS011;43465;50.728;4.160;2023-06-22T01:10:02;8.20;;;6.65;;
57635;SDS011;43465;50.728;4.160;2023-06-22T01:12:30;9.10;;;6.78;;
57635;SDS011;43465;50.728;4.160;2023-06-22T01:15:08;9.60;;;7.22;;
57635;SDS011;43465;50.728;4.160;2023-06-22T01:17:39;8.45;;;6.40;;
57635;SDS011;43465;50.728;4.160;2023-06-22T01:20:08;7.32;;;6.63;;
57635;SDS011;43465;50.728;4.160;2023-06-22T01:22:50;9.00;;;7.25;;
57635;SDS011;43465;50.728;4.160;2023-06-22T01:25:36;13.25;;;9.68;;
57635;SDS011;43465;50.728;4.160;2023-06-22T01:31:17;11.13;;;8.90;;
57635;SDS011;43465;50.728;4.160;2023-06-22T01:33:49;12.60;;;9.40;;
57635;SDS011;43465;50.728;4.160;2023-06-22T01:36:20;14.57;;;10.50;;
57635;SDS011;43465;50.728;4.160;2023-06-22T01:38:47;13.98;;;11.02;;
57635;SDS011;43465;50.728;4.160;2023-06-22T01:41:14;17.10;;;11.82;;
57635;SDS011;43465;50.728;4.160;2023-06-22T01:43:41;19.55;;;12.88;;
57635;SDS011;43465;50.728;4.160;2023-06-22T01:46:08;16.13;;;11.95;;
57635;SDS011;43465;50.728;4.160;2023-06-22T01:48:35;19.05;;;13.10;;
57635;SDS011;43465;50.728;4.160;2023-06-22T01:51:01;14.10;;;11.25;;
57635;SDS011;43465;50.728;4.160;2023-06-22T01:53:27;14.57;;;9.90;;
57635;SDS011;43465;50.728;4.160;2023-06-22T01:55:53;9.73;;;8.10;;
57635;SDS011;43465;50.728;4.160;2023-06-22T01:58:20;13.10;;;8.27;;
57635;SDS011;43465;50.728;4.160;2023-06-22T02:00:53;10.70;;;8.30;;
57635;SDS011;43465;50.728;4.160;2023-06-22T02:03:34;9.02;;;7.60;;
57635;SDS011;43465;50.728;4.160;2023-06-22T02:06:21;11.20;;;8.00;;
57635;SDS011;43465;50.728;4.160;2023-06-22T02:08:51;9.52;;;8.30;;
57635;SDS011;43465;50.728;4.160;2023-06-22T02:11:20;11.45;;;7.50;;
57635;SDS011;43465;50.728;4.160;2023-06-22T02:13:47;8.18;;;6.53;;
57635;SDS011;43465;50.728;4.160;2023-06-22T02:16:14;8.10;;;7.30;;
57635;SDS011;43465;50.728;4.160;2023-06-22T02:18:48;7.75;;;6.95;;
57635;SDS011;43465;50.728;4.160;2023-06-22T02:21:17;10.60;;;7.28;;
57635;SDS011;43465;50.728;4.160;2023-06-22T02:23:46;9.13;;;6.90;;
57635;SDS011;43465;50.728;4.160;2023-06-22T02:26:12;11.90;;;8.80;;
57635;SDS011;43465;50.728;4.160;2023-06-22T02:28:38;11.63;;;8.95;;
57635;SDS011;43465;50.728;4.160;2023-06-22T02:31:04;11.13;;;8.57;;
57635;SDS011;43465;50.728;4.160;2023-06-22T02:33:30;9.15;;;7.65;;
57635;SDS011;43465;50.728;4.160;2023-06-22T02:35:55;13.23;;;9.10;;
57635;SDS011;43465;50.728;4.160;2023-06-22T02:38:21;12.65;;;9.50;;
57635;SDS011;43465;50.728;4.160;2023-06-22T02:40:49;16.27;;;9.73;;
57635;SDS011;43465;50.728;4.160;2023-06-22T02:43:15;11.73;;;9.75;;
57635;SDS011;43465;50.728;4.160;2023-06-22T02:45:40;13.07;;;9.75;;
57635;SDS011;43465;50.728;4.160;2023-06-22T02:48:06;30.67;;;19.38;;
57635;SDS011;43465;50.728;4.160;2023-06-22T02:50:32;27.02;;;18.17;;
57635;SDS011;43465;50.728;4.160;2023-06-22T02:52:58;30.35;;;19.60;;
57635;SDS011;43465;50.728;4.160;2023-06-22T02:55:23;36.50;;;21.20;;
57635;SDS011;43465;50.728;4.160;2023-06-22T02:57:49;32.13;;;20.98;;
57635;SDS011;43465;50.728;4.160;2023-06-22T03:00:17;34.00;;;21.63;;
57635;SDS011;43465;50.728;4.160;2023-06-22T03:02:44;39.28;;;22.15;;
57635;SDS011;43465;50.728;4.160;2023-06-22T03:05:11;32.17;;;20.80;;
57635;SDS011;43465;50.728;4.160;2023-06-22T03:07:41;32.08;;;19.85;;
57635;SDS011;43465;50.728;4.160;2023-06-22T03:10:10;31.70;;;19.55;;
57635;SDS011;43465;50.728;4.160;2023-06-22T03:12:38;26.90;;;18.25;;
57635;SDS011;43465;50.728;4.160;2023-06-22T03:15:07;23.10;;;15.85;;
57635;SDS011;43465;50.728;4.160;2023-06-22T03:17:37;17.13;;;12.90;;
57635;SDS011;43465;50.728;4.160;2023-06-22T03:20:07;12.18;;;9.90;;
57635;SDS011;43465;50.728;4.160;2023-06-22T03:22:37;12.60;;;8.20;;
57635;SDS011;43465;50.728;4.160;2023-06-22T03:25:03;12.07;;;8.25;;
57635;SDS011;43465;50.728;4.160;2023-06-22T03:27:29;11.73;;;8.25;;
57635;SDS011;43465;50.728;4.160;2023-06-22T03:29:56;7.85;;;7.05;;
57635;SDS011;43465;50.728;4.160;2023-06-22T03:32:22;10.05;;;6.97;;
57635;SDS011;43465;50.728;4.160;2023-06-22T03:34:48;7.65;;;6.85;;
57635;SDS011;43465;50.728;4.160;2023-06-22T03:37:14;10.70;;;7.80;;
57635;SDS011;43465;50.728;4.160;2023-06-22T03:39:40;8.70;;;7.18;;
57635;SDS011;43465;50.728;4.160;2023-06-22T03:42:06;9.98;;;7.07;;
57635;SDS011;43465;50.728;4.160;2023-06-22T03:44:33;9.40;;;7.80;;
57635;SDS011;43465;50.728;4.160;2023-06-22T03:47:01;9.93;;;7.65;;
57635;SDS011;43465;50.728;4.160;2023-06-22T03:49:27;9.35;;;6.70;;
57635;SDS011;43465;50.728;4.160;2023-06-22T03:51:53;8.40;;;7.03;;
57635;SDS011;43465;50.728;4.160;2023-06-22T03:54:19;14.13;;;7.90;;
57635;SDS011;43465;50.728;4.160;2023-06-22T03:56:44;11.15;;;8.23;;
57635;SDS011;43465;50.728;4.160;2023-06-22T03:59:10;11.05;;;8.32;;
57635;SDS011;43465;50.728;4.160;2023-06-22T04:01:35;11.65;;;8.18;;
57635;SDS011;43465;50.728;4.160;2023-06-22T04:04:01;13.07;;;8.20;;
57635;SDS011;43465;50.728;4.160;2023-06-22T04:06:27;11.38;;;8.23;;
57635;SDS011;43465;50.728;4.160;2023-06-22T04:08:53;11.32;;;7.50;;
57635;SDS011;43465;50.728;4.160;2023-06-22T04:11:18;13.68;;;8.02;;
57635;SDS011;43465;50.728;4.160;2023-06-22T04:13:44;7.78;;;6.97;;
57635;SDS011;43465;50.728;4.160;2023-06-22T04:16:10;9.68;;;7.93;;
57635;SDS011;43465;50.728;4.160;2023-06-22T04:18:35;10.05;;;7.55;;
57635;SDS011;43465;50.728;4.160;2023-06-22T04:21:01;9.65;;;8.00;;
57635;SDS011;43465;50.728;4.160;2023-06-22T04:23:28;10.77;;;8.18;;
57635;SDS011;43465;50.728;4.160;2023-06-22T04:25:53;13.45;;;9.63;;
57635;SDS011;43465;50.728;4.160;2023-06-22T04:28:21;12.52;;;9.13;;
57635;SDS011;43465;50.728;4.160;2023-06-22T04:30:47;11.40;;;8.68;;
57635;SDS011;43465;50.728;4.160;2023-06-22T04:33:16;10.15;;;7.68;;
57635;SDS011;43465;50.728;4.160;2023-06-22T04:35:44;10.07;;;7.38;;
57635;SDS011;43465;50.728;4.160;2023-06-22T04:38:11;9.98;;;7.20;;
57635;SDS011;43465;50.728;4.160;2023-06-22T04:40:38;9.27;;;6.80;;
57635;SDS011;43465;50.728;4.160;2023-06-22T04:43:04;9.85;;;7.15;;
57635;SDS011;43465;50.728;4.160;2023-06-22T04:45:31;8.65;;;6.90;;
57635;SDS011;43465;50.728;4.160;2023-06-22T04:48:02;10.37;;;7.20;;
57635;SDS011;43465;50.728;4.160;2023-06-22T04:50:29;8.80;;;6.50;;
57635;SDS011;43465;50.728;4.160;2023-06-22T04:52:54;10.55;;;8.48;;
57635;SDS011;43465;50.728;4.160;2023-06-22T04:55:20;14.40;;;9.68;;
57635;SDS011;43465;50.728;4.160;2023-06-22T04:57:46;12.93;;;9.88;;
57635;SDS011;43465;50.728;4.160;2023-06-22T05:00:22;11.00;;;8.30;;
57635;SDS011;43465;50.728;4.160;2023-06-22T05:02:48;9.02;;;7.70;;
57635;SDS011;43465;50.728;4.160;2023-06-22T05:05:14;10.40;;;8.05;;
57635;SDS011;43465;50.728;4.160;2023-06-22T05:07:44;9.88;;;7.53;;
57635;SDS011;43465;50.728;4.160;2023-06-22T05:12:39;12.05;;;8.50;;
57635;SDS011;43465;50.728;4.160;2023-06-22T05:15:07;12.23;;;8.80;;
57635;SDS011;43465;50.728;4.160;2023-06-22T05:17:33;10.38;;;8.57;;
57635;SDS011;43465;50.728;4.160;2023-06-22T05:19:59;11.40;;;8.73;;
57635;SDS011;43465;50.728;4.160;2023-06-22T05:22:25;12.40;;;10.98;;
57635;SDS011;43465;50.728;4.160;2023-06-22T05:24:51;14.32;;;10.57;;
57635;SDS011;43465;50.728;4.160;2023-06-22T05:27:16;13.23;;;11.18;;
57635;SDS011;43465;50.728;4.160;2023-06-22T05:29:42;15.85;;;10.75;;
57635;SDS011;43465;50.728;4.160;2023-06-22T05:32:08;14.15;;;10.77;;
57635;SDS011;43465;50.728;4.160;2023-06-22T05:34:34;13.25;;;9.82;;
57635;SDS011;43465;50.728;4.160;2023-06-22T05:36:59;16.08;;;9.60;;
57635;SDS011;43465;50.728;4.160;2023-06-22T05:39:25;13.55;;;10.00;;
57635;SDS011;43465;50.728;4.160;2023-06-22T05:41:51;13.80;;;9.38;;
57635;SDS011;43465;50.728;4.160;2023-06-22T05:44:17;17.25;;;10.35;;
57635;SDS011;43465;50.728;4.160;2023-06-22T05:46:44;15.10;;;9.43;;
57635;SDS011;43465;50.728;4.160;2023-06-22T05:49:11;13.43;;;9.68;;
57635;SDS011;43465;50.728;4.160;2023-06-22T05:51:37;13.05;;;10.00;;
57635;SDS011;43465;50.728;4.160;2023-06-22T05:54:03;13.07;;;9.65;;
57635;SDS011;43465;50.728;4.160;2023-06-22T05:56:32;15.90;;;10.60;;
57635;SDS011;43465;50.728;4.160;2023-06-22T05:58:57;15.68;;;11.02;;
57635;SDS011;43465;50.728;4.160;2023-06-22T06:01:23;14.80;;;9.88;;
57635;SDS011;43465;50.728;4.160;2023-06-22T06:03:50;13.60;;;11.50;;
57635;SDS011;43465;50.728;4.160;2023-06-22T06:06:17;15.25;;;11.43;;
57635;SDS011;43465;50.728;4.160;2023-06-22T06:08:46;14.25;;;10.88;;
57635;SDS011;43465;50.728;4.160;2023-06-22T06:11:12;16.35;;;11.82;;
57635;SDS011;43465;50.728;4.160;2023-06-22T06:13:37;19.15;;;11.15;;
57635;SDS011;43465;50.728;4.160;2023-06-22T06:16:03;13.55;;;10.52;;
57635;SDS011;43465;50.728;4.160;2023-06-22T06:18:29;16.98;;;11.00;;
57635;SDS011;43465;50.728;4.160;2023-06-22T06:20:54;14.88;;;9.85;;
57635;SDS011;43465;50.728;4.160;2023-06-22T06:23:20;12.00;;;10.13;;
57635;SDS011;43465;50.728;4.160;2023-06-22T06:25:46;15.75;;;10.18;;
57635;SDS011;43465;50.728;4.160;2023-06-22T06:28:11;12.07;;;9.73;;
57635;SDS011;43465;50.728;4.160;2023-06-22T06:30:37;12.85;;;10.52;;
57635;SDS011;43465;50.728;4.160;2023-06-22T06:33:03;13.68;;;11.60;;
57635;SDS011;43465;50.728;4.160;2023-06-22T06:35:33;16.90;;;12.05;;
57635;SDS011;43465;50.728;4.160;2023-06-22T06:37:59;15.98;;;11.65;;
57635;SDS011;43465;50.728;4.160;2023-06-22T06:40:25;13.35;;;11.98;;
57635;SDS011;43465;50.728;4.160;2023-06-22T06:42:51;14.75;;;11.77;;
57635;SDS011;43465;50.728;4.160;2023-06-22T06:45:18;15.70;;;12.15;;
57635;SDS011;43465;50.728;4.160;2023-06-22T06:47:45;14.85;;;11.73;;
57635;SDS011;43465;50.728;4.160;2023-06-22T06:50:11;19.50;;;13.07;;
57635;SDS011;43465;50.728;4.160;2023-06-22T06:52:37;19.55;;;13.20;;
57635;SDS011;43465;50.728;4.160;2023-06-22T06:55:03;17.85;;;13.27;;
57635;SDS011;43465;50.728;4.160;2023-06-22T06:57:39;15.82;;;12.32;;
57635;SDS011;43465;50.728;4.160;2023-06-22T07:00:07;15.23;;;13.23;;
57635;SDS011;43465;50.728;4.160;2023-06-22T07:02:42;19.60;;;14.27;;
57635;SDS011;43465;50.728;4.160;2023-06-22T07:05:09;21.38;;;14.13;;
57635;SDS011;43465;50.728;4.160;2023-06-22T07:07:35;16.73;;;14.52;;
57635;SDS011;43465;50.728;4.160;2023-06-22T07:10:01;17.00;;;15.15;;
57635;SDS011;43465;50.728;4.160;2023-06-22T07:12:28;23.08;;;16.17;;
57635;SDS011;43465;50.728;4.160;2023-06-22T07:14:53;23.17;;;17.30;;
57635;SDS011;43465;50.728;4.160;2023-06-22T07:17:25;23.55;;;17.73;;
57635;SDS011;43465;50.728;4.160;2023-06-22T07:19:51;22.63;;;16.77;;
57635;SDS011;43465;50.728;4.160;2023-06-22T07:22:16;22.35;;;16.88;;
57635;SDS011;43465;50.728;4.160;2023-06-22T07:24:42;19.50;;;16.40;;
57635;SDS011;43465;50.728;4.160;2023-06-22T07:27:07;22.80;;;17.67;;
57635;SDS011;43465;50.728;4.160;2023-06-22T07:29:36;22.25;;;18.05;;
57635;SDS011;43465;50.728;4.160;2023-06-22T07:32:02;25.20;;;18.42;;
57635;SDS011;43465;50.728;4.160;2023-06-22T07:34:30;23.80;;;17.33;;
57635;SDS011;43465;50.728;4.160;2023-06-22T07:36:55;21.92;;;16.65;;
57635;SDS011;43465;50.728;4.160;2023-06-22T07:39:21;21.92;;;18.02;;
57635;SDS011;43465;50.728;4.160;2023-06-22T07:41:50;23.75;;;17.95;;
57635;SDS011;43465;50.728;4.160;2023-06-22T07:44:16;19.75;;;17.00;;
57635;SDS011;43465;50.728;4.160;2023-06-22T07:46:42;19.85;;;17.73;;
57635;SDS011;43465;50.728;4.160;2023-06-22T07:49:08;21.65;;;19.35;;
57635;SDS011;43465;50.728;4.160;2023-06-22T07:51:34;21.75;;;18.40;;
57635;SDS011;43465;50.728;4.160;2023-06-22T07:53:59;21.95;;;17.73;;
57635;SDS011;43465;50.728;4.160;2023-06-22T07:56:25;21.92;;;17.20;;
57635;SDS011;43465;50.728;4.160;2023-06-22T07:58:51;20.88;;;18.73;;
57635;SDS011;43465;50.728;4.160;2023-06-22T08:01:18;20.30;;;17.65;;
57635;SDS011;43465;50.728;4.160;2023-06-22T08:03:46;24.27;;;17.58;;
57635;SDS011;43465;50.728;4.160;2023-06-22T08:06:13;21.40;;;16.67;;
57635;SDS011;43465;50.728;4.160;2023-06-22T08:08:39;21.63;;;16.45;;
57635;SDS011;43465;50.728;4.160;2023-06-22T08:11:05;25.30;;;17.38;;
57635;SDS011;43465;50.728;4.160;2023-06-22T08:13:31;22.10;;;16.30;;
57635;SDS011;43465;50.728;4.160;2023-06-22T08:15:57;20.90;;;15.27;;
57635;SDS011;43465;50.728;4.160;2023-06-22T08:18:22;23.75;;;17.27;;
57635;SDS011;43465;50.728;4.160;2023-06-22T08:20:48;19.42;;;17.25;;
57635;SDS011;43465;50.728;4.160;2023-06-22T08:23:14;22.77;;;17.60;;
57635;SDS011;43465;50.728;4.160;2023-06-22T08:25:40;22.95;;;17.88;;
57635;SDS011;43465;50.728;4.160;2023-06-22T08:28:05;23.90;;;17.25;;
57635;SDS011;43465;50.728;4.160;2023-06-22T08:30:32;20.73;;;16.77;;
57635;SDS011;43465;50.728;4.160;2023-06-22T08:32:57;20.23;;;16.42;;
57635;SDS011;43465;50.728;4.160;2023-06-22T08:35:23;18.05;;;16.13;;
57635;SDS011;43465;50.728;4.160;2023-06-22T08:37:49;20.95;;;17.30;;
57635;SDS011;43465;50.728;4.160;2023-06-22T08:40:20;18.83;;;14.98;;
57635;SDS011;43465;50.728;4.160;2023-06-22T08:42:47;17.98;;;16.02;;
57635;SDS011;43465;50.728;4.160;2023-06-22T08:45:13;20.45;;;16.15;;
57635;SDS011;43465;50.728;4.160;2023-06-22T08:47:40;19.48;;;16.85;;
57635;SDS011;43465;50.728;4.160;2023-06-22T08:50:07;19.45;;;16.60;;
57635;SDS011;43465;50.728;4.160;2023-06-22T08:52:37;17.90;;;16.05;;
57635;SDS011;43465;50.728;4.160;2023-06-22T08:55:04;21.88;;;17.00;;
57635;SDS011;43465;50.728;4.160;2023-06-22T08:57:30;20.90;;;16.77;;
57635;SDS011;43465;50.728;4.160;2023-06-22T08:59:57;19.08;;;16.20;;
57635;SDS011;43465;50.728;4.160;2023-06-22T09:02:24;16.13;;;14.43;;
57635;SDS011;43465;50.728;4.160;2023-06-22T09:04:50;17.17;;;14.90;;
57635;SDS011;43465;50.728;4.160;2023-06-22T09:07:20;17.98;;;15.05;;
57635;SDS011;43465;50.728;4.160;2023-06-22T09:09:48;19.15;;;15.77;;
57635;SDS011;43465;50.728;4.160;2023-06-22T09:12:14;23.00;;;17.48;;
57635;SDS011;43465;50.728;4.160;2023-06-22T09:14:40;20.73;;;16.38;;
57635;SDS011;43465;50.728;4.160;2023-06-22T09:17:05;23.00;;;18.00;;
57635;SDS011;43465;50.728;4.160;2023-06-22T09:19:31;19.48;;;17.35;;
57635;SDS011;43465;50.728;4.160;2023-06-22T09:21:57;21.95;;;18.30;;
57635;SDS011;43465;50.728;4.160;2023-06-22T09:24:23;18.40;;;16.10;;
57635;SDS011;43465;50.728;4.160;2023-06-22T09:26:49;20.77;;;17.30;;
57635;SDS011;43465;50.728;4.160;2023-06-22T09:29:15;21.15;;;18.23;;
57635;SDS011;43465;50.728;4.160;2023-06-22T09:31:41;20.40;;;17.95;;
57635;SDS011;43465;50.728;4.160;2023-06-22T09:34:06;20.73;;;17.55;;
57635;SDS011;43465;50.728;4.160;2023-06-22T09:36:32;19.05;;;16.95;;
57635;SDS011;43465;50.728;4.160;2023-06-22T09:38:57;20.83;;;18.60;;
57635;SDS011;43465;50.728;4.160;2023-06-22T09:41:24;19.88;;;17.08;;
57635;SDS011;43465;50.728;4.160;2023-06-22T09:43:50;24.65;;;17.55;;
57635;SDS011;43465;50.728;4.160;2023-06-22T09:46:16;20.15;;;18.05;;
57635;SDS011;43465;50.728;4.160;2023-06-22T09:48:42;22.13;;;19.20;;
57635;SDS011;43465;50.728;4.160;2023-06-22T09:51:08;21.75;;;18.25;;
57635;SDS011;43465;50.728;4.160;2023-06-22T09:53:34;23.55;;;19.63;;
57635;SDS011;43465;50.728;4.160;2023-06-22T09:56:00;21.80;;;19.60;;
57635;SDS011;43465;50.728;4.160;2023-06-22T09:58:26;20.73;;;18.42;;
57635;SDS011;43465;50.728;4.160;2023-06-22T10:00:52;17.75;;;15.88;;
57635;SDS011;43465;50.728;4.160;2023-06-22T10:03:19;17.95;;;16.05;;
57635;SDS011;43465;50.728;4.160;2023-06-22T10:05:45;19.05;;;17.05;;
57635;SDS011;43465;50.728;4.160;2023-06-22T10:08:11;19.20;;;16.67;;
57635;SDS011;43465;50.728;4.160;2023-06-22T10:10:36;20.75;;;18.23;;
57635;SDS011;43465;50.728;4.160;2023-06-22T10:13:06;22.88;;;20.15;;
57635;SDS011;43465;50.728;4.160;2023-06-22T10:15:36;26.50;;;21.27;;
57635;SDS011;43465;50.728;4.160;2023-06-22T10:18:03;25.15;;;22.23;;
57635;SDS011;43465;50.728;4.160;2023-06-22T10:20:28;26.90;;;22.67;;
57635;SDS011;43465;50.728;4.160;2023-06-22T10:22:54;27.80;;;24.65;;
57635;SDS011;43465;50.728;4.160;2023-06-22T10:25:21;28.42;;;25.35;;
57635;SDS011;43465;50.728;4.160;2023-06-22T10:27:46;32.92;;;26.80;;
57635;SDS011;43465;50.728;4.160;2023-06-22T10:30:12;27.35;;;24.52;;
57635;SDS011;43465;50.728;4.160;2023-06-22T10:32:39;26.63;;;23.90;;
57635;SDS011;43465;50.728;4.160;2023-06-22T10:35:05;25.65;;;23.02;;
57635;SDS011;43465;50.728;4.160;2023-06-22T10:37:31;22.98;;;20.55;;
57635;SDS011;43465;50.728;4.160;2023-06-22T10:39:57;22.38;;;20.08;;
57635;SDS011;43465;50.728;4.160;2023-06-22T10:42:23;23.88;;;20.73;;
57635;SDS011;43465;50.728;4.160;2023-06-22T10:44:48;25.05;;;21.30;;
57635;SDS011;43465;50.728;4.160;2023-06-22T10:47:14;24.75;;;22.23;;
57635;SDS011;43465;50.728;4.160;2023-06-22T10:49:40;25.38;;;22.83;;
57635;SDS011;43465;50.728;4.160;2023-06-22T10:52:06;26.45;;;23.73;;
57635;SDS011;43465;50.728;4.160;2023-06-22T10:54:33;26.20;;;23.52;;
57635;SDS011;43465;50.728;4.160;2023-06-22T10:57:00;25.52;;;23.02;;
57635;SDS011;43465;50.728;4.160;2023-06-22T10:59:26;25.13;;;22.45;;
57635;SDS011;43465;50.728;4.160;2023-06-22T11:01:52;24.27;;;21.85;;
57635;SDS011;43465;50.728;4.160;2023-06-22T11:04:18;26.13;;;23.50;;
57635;SDS011;43465;50.728;4.160;2023-06-22T11:06:44;26.95;;;23.38;;
57635;SDS011;43465;50.728;4.160;2023-06-22T11:09:09;26.75;;;23.92;;
57635;SDS011;43465;50.728;4.160;2023-06-22T11:11:35;25.67;;;22.98;;
57635;SDS011;43465;50.728;4.160;2023-06-22T11:14:01;24.95;;;22.52;;
57635;SDS011;43465;50.728;4.160;2023-06-22T11:16:27;25.95;;;23.42;;
57635;SDS011;43465;50.728;4.160;2023-06-22T11:18:53;25.15;;;22.58;;
57635;SDS011;43465;50.728;4.160;2023-06-22T11:21:19;25.58;;;22.95;;
57635;SDS011;43465;50.728;4.160;2023-06-22T11:23:44;26.45;;;23.75;;
57635;SDS011;43465;50.728;4.160;2023-06-22T11:26:10;26.80;;;24.00;;
57635;SDS011;43465;50.728;4.160;2023-06-22T11:28:36;25.05;;;22.35;;
57635;SDS011;43465;50.728;4.160;2023-06-22T11:31:01;26.73;;;23.65;;
57635;SDS011;43465;50.728;4.160;2023-06-22T11:33:28;25.65;;;22.95;;
57635;SDS011;43465;50.728;4.160;2023-06-22T11:35:54;28.02;;;25.08;;
57635;SDS011;43465;50.728;4.160;2023-06-22T11:38:21;26.48;;;23.63;;
57635;SDS011;43465;50.728;4.160;2023-06-22T11:40:47;27.75;;;24.02;;
57635;SDS011;43465;50.728;4.160;2023-06-22T11:43:12;25.48;;;22.75;;
57635;SDS011;43465;50.728;4.160;2023-06-22T11:45:39;27.25;;;23.90;;
57635;SDS011;43465;50.728;4.160;2023-06-22T11:48:05;26.75;;;24.02;;
57635;SDS011;43465;50.728;4.160;2023-06-22T11:50:31;27.13;;;24.25;;
57635;SDS011;43465;50.728;4.160;2023-06-22T11:53:00;26.73;;;23.92;;
57635;SDS011;43465;50.728;4.160;2023-06-22T11:55:29;26.58;;;23.75;;
57635;SDS011;43465;50.728;4.160;2023-06-22T11:57:55;27.73;;;24.75;;
57635;SDS011;43465;50.728;4.160;2023-06-22T12:00:23;28.52;;;25.35;;
57635;SDS011;43465;50.728;4.160;2023-06-22T12:02:52;28.92;;;25.45;;
57635;SDS011;43465;50.728;4.160;2023-06-22T12:05:21;27.88;;;25.00;;
57635;SDS011;43465;50.728;4.160;2023-06-22T12:07:47;30.45;;;26.40;;
57635;SDS011;43465;50.728;4.160;2023-06-22T12:10:13;30.30;;;26.65;;
57635;SDS011;43465;50.728;4.160;2023-06-22T12:12:39;30.25;;;26.80;;
57635;SDS011;43465;50.728;4.160;2023-06-22T12:15:05;30.75;;;27.55;;
57635;SDS011;43465;50.728;4.160;2023-06-22T12:17:32;31.75;;;28.38;;
57635;SDS011;43465;50.728;4.160;2023-06-22T12:19:58;31.50;;;28.13;;
57635;SDS011;43465;50.728;4.160;2023-06-22T12:22:24;32.40;;;28.25;;
57635;SDS011;43465;50.728;4.160;2023-06-22T12:24:50;31.65;;;28.20;;
57635;SDS011;43465;50.728;4.160;2023-06-22T12:27:16;32.10;;;28.80;;
57635;SDS011;43465;50.728;4.160;2023-06-22T12:29:43;33.08;;;29.63;;
57635;SDS011;43465;50.728;4.160;2023-06-22T12:32:12;33.55;;;29.90;;
57635;SDS011;43465;50.728;4.160;2023-06-22T12:34:39;34.30;;;30.65;;
57635;SDS011;43465;50.728;4.160;2023-06-22T12:37:05;35.17;;;30.98;;
57635;SDS011;43465;50.728;4.160;2023-06-22T12:39:31;36.38;;;32.45;;
57635;SDS011;43465;50.728;4.160;2023-06-22T12:41:57;37.75;;;33.80;;
57635;SDS011;43465;50.728;4.160;2023-06-22T12:44:22;41.92;;;35.30;;
57635;SDS011;43465;50.728;4.160;2023-06-22T12:46:48;41.35;;;36.65;;
57635;SDS011;43465;50.728;4.160;2023-06-22T12:49:14;45.35;;;39.78;;
57635;SDS011;43465;50.728;4.160;2023-06-22T12:51:40;48.28;;;40.30;;
57635;SDS011;43465;50.728;4.160;2023-06-22T12:54:09;53.03;;;42.53;;
57635;SDS011;43465;50.728;4.160;2023-06-22T12:56:36;58.95;;;44.28;;
57635;SDS011;43465;50.728;4.160;2023-06-22T12:59:02;54.70;;;45.92;;
57635;SDS011;43465;50.728;4.160;2023-06-22T13:01:29;57.80;;;46.42;;
57635;SDS011;43465;50.728;4.160;2023-06-22T13:03:58;60.35;;;47.80;;
57635;SDS011;43465;50.728;4.160;2023-06-22T13:06:24;56.70;;;46.10;;
57635;SDS011;43465;50.728;4.160;2023-06-22T13:08:50;54.17;;;45.65;;
57635;SDS011;43465;50.728;4.160;2023-06-22T13:11:15;57.67;;;47.30;;
57635;SDS011;43465;50.728;4.160;2023-06-22T13:13:41;56.58;;;45.88;;
57635;SDS011;43465;50.728;4.160;2023-06-22T13:16:08;59.03;;;47.53;;
57635;SDS011;43465;50.728;4.160;2023-06-22T13:18:34;55.95;;;44.72;;
57635;SDS011;43465;50.728;4.160;2023-06-22T13:21:01;56.47;;;44.38;;
57635;SDS011;43465;50.728;4.160;2023-06-22T13:23:27;57.42;;;45.95;;
57635;SDS011;43465;50.728;4.160;2023-06-22T13:25:52;58.50;;;45.78;;
57635;SDS011;43465;50.728;4.160;2023-06-22T13:28:18;61.97;;;47.38;;
57635;SDS011;43465;50.728;4.160;2023-06-22T13:30:45;60.40;;;46.72;;
57635;SDS011;43465;50.728;4.160;2023-06-22T13:33:12;64.10;;;47.40;;
57635;SDS011;43465;50.728;4.160;2023-06-22T13:35:38;66.43;;;47.58;;
57635;SDS011;43465;50.728;4.160;2023-06-22T13:38:04;66.15;;;48.55;;
57635;SDS011;43465;50.728;4.160;2023-06-22T13:40:30;66.90;;;48.60;;
57635;SDS011;43465;50.728;4.160;2023-06-22T13:42:56;67.10;;;48.53;;
57635;SDS011;43465;50.728;4.160;2023-06-22T13:45:22;68.95;;;49.63;;
57635;SDS011;43465;50.728;4.160;2023-06-22T13:47:48;71.40;;;51.20;;
57635;SDS011;43465;50.728;4.160;2023-06-22T13:50:14;68.32;;;49.95;;
57635;SDS011;43465;50.728;4.160;2023-06-22T13:52:40;70.43;;;51.28;;
57635;SDS011;43465;50.728;4.160;2023-06-22T13:55:06;65.32;;;50.45;;
57635;SDS011;43465;50.728;4.160;2023-06-22T13:57:32;63.65;;;48.22;;
57635;SDS011;43465;50.728;4.160;2023-06-22T13:59:59;62.60;;;48.70;;
57635;SDS011;43465;50.728;4.160;2023-06-22T14:02:28;66.10;;;49.90;;
57635;SDS011;43465;50.728;4.160;2023-06-22T14:04:53;63.75;;;50.05;;
57635;SDS011;43465;50.728;4.160;2023-06-22T14:07:19;61.42;;;48.90;;
57635;SDS011;43465;50.728;4.160;2023-06-22T14:09:45;58.60;;;47.53;;
57635;SDS011;43465;50.728;4.160;2023-06-22T14:12:12;55.92;;;46.22;;
57635;SDS011;43465;50.728;4.160;2023-06-22T14:14:37;52.35;;;44.15;;
57635;SDS011;43465;50.728;4.160;2023-06-22T14:17:03;55.20;;;43.55;;
57635;SDS011;43465;50.728;4.160;2023-06-22T14:19:29;54.38;;;45.20;;
57635;SDS011;43465;50.728;4.160;2023-06-22T14:21:55;53.03;;;44.08;;
57635;SDS011;43465;50.728;4.160;2023-06-22T14:24:22;49.17;;;42.28;;
57635;SDS011;43465;50.728;4.160;2023-06-22T14:26:48;51.15;;;43.92;;
57635;SDS011;43465;50.728;4.160;2023-06-22T14:29:13;55.30;;;43.67;;
57635;SDS011;43465;50.728;4.160;2023-06-22T14:31:39;52.08;;;45.00;;
57635;SDS011;43465;50.728;4.160;2023-06-22T14:34:05;54.97;;;46.10;;